Αρχική σελίδα
METAR-TAF:

METAR-TAF

Αεροδρόμια :

Νουακσότ, Μαυριτανία

γεωγραφικό πλάτος: 18-18-36N, γεωγραφικό μήκος: 015-58-11W, υψόμετρο: 3 μ

Παρών καιρός

Η αναφορά έγινε 20 λεπτά πριν, στις 23:30 UTC
Άνεμος 8 kt από Β/BA
Θερμοκρασία 18°C
Υγρασία 34%
Πίεση 1019 hPa
Ορατότητα: 8000 μ

METAR: GQNO 212330Z 03008KT 8000 NSC 18/02 Q1019 NOSIG

Χρόνος: 23:50 (23:50 UTC)

Πρόγνωση Καιρού

Η αναφορά έγινε 6 ώρες και 50 λεπτά πριν, στις 17:00 UTC
Η πρόγνωση ισχύει από τις 21 στις 18 UTC έως τις 22 στις 24 UTC
Άνεμος 12 kt από BA
Ορατότητα: 7000 μ
Πιθανότητα 30% :
Προσωρινά
από 22 στις 10 UTC έως τις 22 στις 15 UTC
Ορατότητα: 3500 μ
φυσώντας άμμου

TAF: GQNO 211700Z 2118/2224 04012KT 7000 NSC PROB30 TEMPO 2210/2215 3500 BLSA

Μετεωρολογικές αναφορές και προγνώσεις για περισσότερα από 4000 αεροδρόμια (δελτία METAR και TAF).

Οι διαθέσιμοι σταθμοί απεικονίζονται στο χάρτη με κίτρινες και κόκκινες κουκκίδες.

Μετακινήστε το ποντίκι πάνω από τις κουκκίδες για να δείτε το όνομα του σταθμού.

Στη συνέχεια, κάντε κλικ για να δείτε τις μετεωρολογικές αναφορές και τις προγνώσεις καιρού.

Για να αλλάξετε το χάρτη: κάντε κλικ στα πράσινα κουμπιά με τον μαύρο σταυρό για να ζουμάρετε, στο πράσινο κουμπί με την παύλα για να αφαιρέσετε το ζουμ ή στα πράσινα βέλη για να αντιπαραβάλλετε χάρτες.


METAR-TAF: